sensor_id;sensor_type;location;lat;lon;timestamp;P1;durP1;ratioP1;P2;durP2;ratioP2
38083;SDS011;23894;51.466;7.444;2023-02-28T00:01:14;10.30;;;7.45;;
38083;SDS011;23894;51.466;7.444;2023-02-28T00:03:21;8.85;;;6.45;;
38083;SDS011;23894;51.466;7.444;2023-02-28T00:05:23;10.48;;;6.50;;
38083;SDS011;23894;51.466;7.444;2023-02-28T00:07:27;10.52;;;6.65;;
38083;SDS011;23894;51.466;7.444;2023-02-28T00:09:30;9.88;;;6.88;;
38083;SDS011;23894;51.466;7.444;2023-02-28T00:11:30;10.05;;;6.80;;
38083;SDS011;23894;51.466;7.444;2023-02-28T00:13:33;13.45;;;7.93;;
38083;SDS011;23894;51.466;7.444;2023-02-28T00:15:39;10.82;;;7.88;;
38083;SDS011;23894;51.466;7.444;2023-02-28T00:17:41;12.00;;;7.45;;
38083;SDS011;23894;51.466;7.444;2023-02-28T00:19:42;9.55;;;7.07;;
38083;SDS011;23894;51.466;7.444;2023-02-28T00:21:44;12.18;;;7.40;;
38083;SDS011;23894;51.466;7.444;2023-02-28T00:23:46;9.98;;;7.10;;
38083;SDS011;23894;51.466;7.444;2023-02-28T00:25:59;11.45;;;7.05;;
38083;SDS011;23894;51.466;7.444;2023-02-28T00:28:02;12.10;;;7.22;;
38083;SDS011;23894;51.466;7.444;2023-02-28T00:30:03;11.50;;;7.53;;
38083;SDS011;23894;51.466;7.444;2023-02-28T00:32:07;10.88;;;7.18;;
38083;SDS011;23894;51.466;7.444;2023-02-28T00:34:08;11.05;;;7.32;;
38083;SDS011;23894;51.466;7.444;2023-02-28T00:36:11;10.80;;;6.82;;
38083;SDS011;23894;51.466;7.444;2023-02-28T00:38:12;11.80;;;7.28;;
38083;SDS011;23894;51.466;7.444;2023-02-28T00:40:15;10.52;;;7.20;;
38083;SDS011;23894;51.466;7.444;2023-02-28T00:42:16;9.93;;;7.10;;
38083;SDS011;23894;51.466;7.444;2023-02-28T00:44:16;10.88;;;7.10;;
38083;SDS011;23894;51.466;7.444;2023-02-28T00:46:18;10.18;;;7.32;;
38083;SDS011;23894;51.466;7.444;2023-02-28T00:48:20;11.65;;;7.50;;
38083;SDS011;23894;51.466;7.444;2023-02-28T00:50:20;13.52;;;7.20;;
38083;SDS011;23894;51.466;7.444;2023-02-28T00:52:22;11.55;;;6.88;;
38083;SDS011;23894;51.466;7.444;2023-02-28T00:54:25;11.30;;;7.15;;
38083;SDS011;23894;51.466;7.444;2023-02-28T00:56:26;10.65;;;7.55;;
38083;SDS011;23894;51.466;7.444;2023-02-28T00:58:29;9.85;;;7.07;;
38083;SDS011;23894;51.466;7.444;2023-02-28T01:00:32;9.50;;;6.80;;
38083;SDS011;23894;51.466;7.444;2023-02-28T01:02:34;9.95;;;7.07;;
38083;SDS011;23894;51.466;7.444;2023-02-28T01:04:34;9.50;;;6.72;;
38083;SDS011;23894;51.466;7.444;2023-02-28T01:06:36;10.15;;;7.10;;
38083;SDS011;23894;51.466;7.444;2023-02-28T01:08:39;10.43;;;6.80;;
38083;SDS011;23894;51.466;7.444;2023-02-28T01:10:42;11.60;;;7.25;;
38083;SDS011;23894;51.466;7.444;2023-02-28T01:12:43;10.80;;;6.95;;
38083;SDS011;23894;51.466;7.444;2023-02-28T01:14:45;11.63;;;6.80;;
38083;SDS011;23894;51.466;7.444;2023-02-28T01:16:47;12.15;;;7.20;;
38083;SDS011;23894;51.466;7.444;2023-02-28T01:18:47;9.32;;;6.10;;
38083;SDS011;23894;51.466;7.444;2023-02-28T01:20:49;10.75;;;7.07;;
38083;SDS011;23894;51.466;7.444;2023-02-28T01:22:52;10.45;;;6.85;;
38083;SDS011;23894;51.466;7.444;2023-02-28T01:24:55;11.52;;;7.00;;
38083;SDS011;23894;51.466;7.444;2023-02-28T01:26:57;9.68;;;6.57;;
38083;SDS011;23894;51.466;7.444;2023-02-28T01:28:58;8.98;;;6.35;;
38083;SDS011;23894;51.466;7.444;2023-02-28T01:31:01;10.90;;;7.00;;
38083;SDS011;23894;51.466;7.444;2023-02-28T01:33:02;10.63;;;6.63;;
38083;SDS011;23894;51.466;7.444;2023-02-28T01:35:05;10.93;;;6.70;;
38083;SDS011;23894;51.466;7.444;2023-02-28T01:37:06;9.18;;;6.60;;
38083;SDS011;23894;51.466;7.444;2023-02-28T01:39:08;9.52;;;6.53;;
38083;SDS011;23894;51.466;7.444;2023-02-28T01:41:14;10.23;;;7.25;;
38083;SDS011;23894;51.466;7.444;2023-02-28T01:43:31;10.25;;;6.93;;
38083;SDS011;23894;51.466;7.444;2023-02-28T01:46:05;10.73;;;6.78;;
38083;SDS011;23894;51.466;7.444;2023-02-28T01:48:09;10.65;;;6.85;;
38083;SDS011;23894;51.466;7.444;2023-02-28T01:50:20;9.43;;;6.60;;
38083;SDS011;23894;51.466;7.444;2023-02-28T01:52:26;9.20;;;6.25;;
38083;SDS011;23894;51.466;7.444;2023-02-28T01:54:29;10.38;;;7.00;;
38083;SDS011;23894;51.466;7.444;2023-02-28T01:56:33;9.63;;;6.80;;
38083;SDS011;23894;51.466;7.444;2023-02-28T01:58:38;11.60;;;6.95;;
38083;SDS011;23894;51.466;7.444;2023-02-28T02:00:40;10.75;;;6.93;;
38083;SDS011;23894;51.466;7.444;2023-02-28T02:02:45;9.88;;;6.63;;
38083;SDS011;23894;51.466;7.444;2023-02-28T02:04:55;11.25;;;7.38;;
38083;SDS011;23894;51.466;7.444;2023-02-28T02:07:13;11.05;;;6.75;;
38083;SDS011;23894;51.466;7.444;2023-02-28T02:09:17;12.32;;;6.70;;
38083;SDS011;23894;51.466;7.444;2023-02-28T02:11:20;8.75;;;6.35;;
38083;SDS011;23894;51.466;7.444;2023-02-28T02:15:37;10.27;;;6.47;;
38083;SDS011;23894;51.466;7.444;2023-02-28T02:17:48;9.73;;;6.63;;
38083;SDS011;23894;51.466;7.444;2023-02-28T02:38:16;9.60;;;6.82;;
38083;SDS011;23894;51.466;7.444;2023-02-28T02:40:23;7.70;;;6.25;;
38083;SDS011;23894;51.466;7.444;2023-02-28T02:42:32;8.68;;;6.30;;
38083;SDS011;23894;51.466;7.444;2023-02-28T02:44:37;9.43;;;6.70;;
38083;SDS011;23894;51.466;7.444;2023-02-28T02:46:43;8.82;;;6.60;;
38083;SDS011;23894;51.466;7.444;2023-02-28T02:48:44;9.88;;;6.25;;
38083;SDS011;23894;51.466;7.444;2023-02-28T02:50:49;12.07;;;6.70;;
38083;SDS011;23894;51.466;7.444;2023-02-28T02:52:54;8.50;;;6.00;;
38083;SDS011;23894;51.466;7.444;2023-02-28T02:54:56;9.73;;;6.85;;
38083;SDS011;23894;51.466;7.444;2023-02-28T02:57:02;10.52;;;6.78;;
38083;SDS011;23894;51.466;7.444;2023-02-28T02:59:06;9.45;;;6.68;;
38083;SDS011;23894;51.466;7.444;2023-02-28T03:01:15;8.95;;;6.40;;
38083;SDS011;23894;51.466;7.444;2023-02-28T03:03:29;8.63;;;5.95;;
38083;SDS011;23894;51.466;7.444;2023-02-28T03:05:47;8.60;;;6.22;;
38083;SDS011;23894;51.466;7.444;2023-02-28T03:07:50;9.93;;;6.53;;
38083;SDS011;23894;51.466;7.444;2023-02-28T03:09:56;11.50;;;6.18;;
38083;SDS011;23894;51.466;7.444;2023-02-28T03:11:57;9.73;;;6.35;;
38083;SDS011;23894;51.466;7.444;2023-02-28T03:18:36;11.45;;;6.03;;
38083;SDS011;23894;51.466;7.444;2023-02-28T03:23:17;10.52;;;6.22;;
38083;SDS011;23894;51.466;7.444;2023-02-28T03:27:46;8.38;;;5.88;;
38083;SDS011;23894;51.466;7.444;2023-02-28T03:29:57;11.57;;;6.25;;
38083;SDS011;23894;51.466;7.444;2023-02-28T03:32:22;7.75;;;5.68;;
38083;SDS011;23894;51.466;7.444;2023-02-28T03:34:34;8.70;;;6.03;;
38083;SDS011;23894;51.466;7.444;2023-02-28T03:36:39;8.32;;;6.20;;
38083;SDS011;23894;51.466;7.444;2023-02-28T03:38:46;8.65;;;5.93;;
38083;SDS011;23894;51.466;7.444;2023-02-28T03:41:36;10.57;;;6.38;;
38083;SDS011;23894;51.466;7.444;2023-02-28T03:43:12;9.20;;;6.32;;
38083;SDS011;23894;51.466;7.444;2023-02-28T03:45:18;10.13;;;6.15;;
38083;SDS011;23894;51.466;7.444;2023-02-28T03:47:33;8.25;;;5.95;;
38083;SDS011;23894;51.466;7.444;2023-02-28T03:49:40;8.75;;;6.00;;
38083;SDS011;23894;51.466;7.444;2023-02-28T03:51:48;9.65;;;6.32;;
38083;SDS011;23894;51.466;7.444;2023-02-28T03:54:02;12.18;;;6.50;;
38083;SDS011;23894;51.466;7.444;2023-02-28T03:56:26;9.35;;;6.05;;
38083;SDS011;23894;51.466;7.444;2023-02-28T03:58:45;8.20;;;5.90;;
38083;SDS011;23894;51.466;7.444;2023-02-28T04:00:50;9.63;;;6.95;;
38083;SDS011;23894;51.466;7.444;2023-02-28T04:02:55;10.85;;;5.57;;
38083;SDS011;23894;51.466;7.444;2023-02-28T04:04:59;9.48;;;6.10;;
38083;SDS011;23894;51.466;7.444;2023-02-28T04:07:06;10.57;;;6.45;;
38083;SDS011;23894;51.466;7.444;2023-02-28T04:09:10;12.82;;;6.85;;
38083;SDS011;23894;51.466;7.444;2023-02-28T04:11:23;9.85;;;6.13;;
38083;SDS011;23894;51.466;7.444;2023-02-28T04:13:26;8.98;;;7.20;;
38083;SDS011;23894;51.466;7.444;2023-02-28T04:15:29;7.88;;;5.95;;
38083;SDS011;23894;51.466;7.444;2023-02-28T04:17:33;9.60;;;6.30;;
38083;SDS011;23894;51.466;7.444;2023-02-28T04:19:35;9.10;;;6.35;;
38083;SDS011;23894;51.466;7.444;2023-02-28T04:21:44;9.70;;;6.50;;
38083;SDS011;23894;51.466;7.444;2023-02-28T04:23:47;11.85;;;6.38;;
38083;SDS011;23894;51.466;7.444;2023-02-28T04:25:54;9.05;;;6.28;;
38083;SDS011;23894;51.466;7.444;2023-02-28T04:27:58;8.75;;;6.32;;
38083;SDS011;23894;51.466;7.444;2023-02-28T04:29:59;8.70;;;6.25;;
38083;SDS011;23894;51.466;7.444;2023-02-28T04:32:01;10.48;;;6.85;;
38083;SDS011;23894;51.466;7.444;2023-02-28T04:34:03;9.20;;;6.15;;
38083;SDS011;23894;51.466;7.444;2023-02-28T04:38:08;9.40;;;6.05;;
38083;SDS011;23894;51.466;7.444;2023-02-28T04:40:10;8.23;;;5.82;;
38083;SDS011;23894;51.466;7.444;2023-02-28T04:42:13;8.30;;;6.68;;
38083;SDS011;23894;51.466;7.444;2023-02-28T04:44:16;9.20;;;6.13;;
38083;SDS011;23894;51.466;7.444;2023-02-28T04:46:18;8.50;;;6.05;;
38083;SDS011;23894;51.466;7.444;2023-02-28T04:48:21;8.27;;;6.28;;
38083;SDS011;23894;51.466;7.444;2023-02-28T04:50:24;9.43;;;6.10;;
38083;SDS011;23894;51.466;7.444;2023-02-28T04:52:27;9.23;;;6.35;;
38083;SDS011;23894;51.466;7.444;2023-02-28T04:54:31;9.88;;;6.38;;
38083;SDS011;23894;51.466;7.444;2023-02-28T04:56:33;9.40;;;6.47;;
38083;SDS011;23894;51.466;7.444;2023-02-28T04:58:36;8.07;;;6.38;;
38083;SDS011;23894;51.466;7.444;2023-02-28T05:00:38;8.48;;;5.95;;
38083;SDS011;23894;51.466;7.444;2023-02-28T05:02:41;9.23;;;7.28;;
38083;SDS011;23894;51.466;7.444;2023-02-28T05:04:45;11.48;;;7.45;;
38083;SDS011;23894;51.466;7.444;2023-02-28T05:06:48;12.30;;;8.13;;
38083;SDS011;23894;51.466;7.444;2023-02-28T05:08:52;11.68;;;7.47;;
38083;SDS011;23894;51.466;7.444;2023-02-28T05:10:55;11.57;;;7.43;;
38083;SDS011;23894;51.466;7.444;2023-02-28T05:12:56;11.38;;;7.78;;
38083;SDS011;23894;51.466;7.444;2023-02-28T05:14:58;9.70;;;6.90;;
38083;SDS011;23894;51.466;7.444;2023-02-28T05:17:03;11.00;;;6.93;;
38083;SDS011;23894;51.466;7.444;2023-02-28T05:19:05;11.68;;;7.18;;
38083;SDS011;23894;51.466;7.444;2023-02-28T05:21:29;12.27;;;7.38;;
38083;SDS011;23894;51.466;7.444;2023-02-28T05:23:30;9.98;;;7.05;;
38083;SDS011;23894;51.466;7.444;2023-02-28T05:25:34;10.20;;;7.18;;
38083;SDS011;23894;51.466;7.444;2023-02-28T05:27:37;8.90;;;6.60;;
38083;SDS011;23894;51.466;7.444;2023-02-28T05:29:42;12.15;;;7.88;;
38083;SDS011;23894;51.466;7.444;2023-02-28T05:31:55;9.63;;;7.45;;
38083;SDS011;23894;51.466;7.444;2023-02-28T05:33:59;11.57;;;7.15;;
38083;SDS011;23894;51.466;7.444;2023-02-28T05:36:04;12.48;;;7.40;;
38083;SDS011;23894;51.466;7.444;2023-02-28T05:38:05;11.63;;;7.60;;
38083;SDS011;23894;51.466;7.444;2023-02-28T05:42:13;10.95;;;7.18;;
38083;SDS011;23894;51.466;7.444;2023-02-28T05:44:14;10.50;;;6.72;;
38083;SDS011;23894;51.466;7.444;2023-02-28T05:46:21;10.57;;;6.75;;
38083;SDS011;23894;51.466;7.444;2023-02-28T05:48:23;10.70;;;6.78;;
38083;SDS011;23894;51.466;7.444;2023-02-28T05:50:24;11.13;;;7.10;;
38083;SDS011;23894;51.466;7.444;2023-02-28T05:52:26;9.55;;;6.72;;
38083;SDS011;23894;51.466;7.444;2023-02-28T05:54:29;9.20;;;6.43;;
38083;SDS011;23894;51.466;7.444;2023-02-28T05:56:31;8.45;;;6.80;;
38083;SDS011;23894;51.466;7.444;2023-02-28T05:58:35;9.82;;;6.80;;
38083;SDS011;23894;51.466;7.444;2023-02-28T06:00:38;9.50;;;6.75;;
38083;SDS011;23894;51.466;7.444;2023-02-28T06:02:40;9.95;;;6.90;;
38083;SDS011;23894;51.466;7.444;2023-02-28T06:04:42;12.18;;;7.53;;
38083;SDS011;23894;51.466;7.444;2023-02-28T06:06:49;11.25;;;6.25;;
38083;SDS011;23894;51.466;7.444;2023-02-28T06:08:52;8.75;;;6.28;;
38083;SDS011;23894;51.466;7.444;2023-02-28T06:10:54;9.30;;;6.10;;
38083;SDS011;23894;51.466;7.444;2023-02-28T06:12:55;9.23;;;6.15;;
38083;SDS011;23894;51.466;7.444;2023-02-28T06:15:13;10.73;;;6.53;;
38083;SDS011;23894;51.466;7.444;2023-02-28T06:17:16;9.13;;;6.07;;
38083;SDS011;23894;51.466;7.444;2023-02-28T06:19:18;8.13;;;6.32;;
38083;SDS011;23894;51.466;7.444;2023-02-28T06:21:23;9.75;;;7.43;;
38083;SDS011;23894;51.466;7.444;2023-02-28T06:23:26;15.32;;;8.40;;
38083;SDS011;23894;51.466;7.444;2023-02-28T06:25:28;14.45;;;9.27;;
38083;SDS011;23894;51.466;7.444;2023-02-28T06:27:31;13.43;;;8.27;;
38083;SDS011;23894;51.466;7.444;2023-02-28T06:29:32;15.25;;;8.23;;
38083;SDS011;23894;51.466;7.444;2023-02-28T06:31:35;12.77;;;8.00;;
38083;SDS011;23894;51.466;7.444;2023-02-28T06:33:36;11.13;;;7.18;;
38083;SDS011;23894;51.466;7.444;2023-02-28T06:35:37;13.85;;;7.30;;
38083;SDS011;23894;51.466;7.444;2023-02-28T06:37:40;9.88;;;7.10;;
38083;SDS011;23894;51.466;7.444;2023-02-28T06:39:45;9.52;;;6.57;;
38083;SDS011;23894;51.466;7.444;2023-02-28T06:41:47;9.13;;;6.50;;
38083;SDS011;23894;51.466;7.444;2023-02-28T06:43:48;9.90;;;6.63;;
38083;SDS011;23894;51.466;7.444;2023-02-28T06:45:53;8.35;;;6.15;;
38083;SDS011;23894;51.466;7.444;2023-02-28T06:47:58;10.48;;;8.27;;
38083;SDS011;23894;51.466;7.444;2023-02-28T06:50:02;10.35;;;6.78;;
38083;SDS011;23894;51.466;7.444;2023-02-28T06:52:03;11.00;;;6.35;;
38083;SDS011;23894;51.466;7.444;2023-02-28T06:54:05;9.07;;;6.40;;
38083;SDS011;23894;51.466;7.444;2023-02-28T06:56:11;9.48;;;6.05;;
38083;SDS011;23894;51.466;7.444;2023-02-28T06:58:13;9.48;;;6.47;;
38083;SDS011;23894;51.466;7.444;2023-02-28T07:00:20;11.48;;;6.72;;
38083;SDS011;23894;51.466;7.444;2023-02-28T07:02:24;14.75;;;7.75;;
38083;SDS011;23894;51.466;7.444;2023-02-28T07:04:27;13.18;;;7.95;;
38083;SDS011;23894;51.466;7.444;2023-02-28T07:06:29;14.27;;;8.63;;
38083;SDS011;23894;51.466;7.444;2023-02-28T07:08:32;12.70;;;7.53;;
38083;SDS011;23894;51.466;7.444;2023-02-28T07:10:40;16.40;;;7.95;;
38083;SDS011;23894;51.466;7.444;2023-02-28T07:12:42;11.90;;;7.50;;
38083;SDS011;23894;51.466;7.444;2023-02-28T07:14:44;13.52;;;8.25;;
38083;SDS011;23894;51.466;7.444;2023-02-28T07:16:47;14.82;;;8.20;;
38083;SDS011;23894;51.466;7.444;2023-02-28T07:18:51;11.90;;;7.72;;
38083;SDS011;23894;51.466;7.444;2023-02-28T07:21:03;13.25;;;7.45;;
38083;SDS011;23894;51.466;7.444;2023-02-28T07:23:08;14.27;;;7.38;;
38083;SDS011;23894;51.466;7.444;2023-02-28T07:25:09;14.05;;;7.78;;
38083;SDS011;23894;51.466;7.444;2023-02-28T07:27:10;10.73;;;7.72;;
38083;SDS011;23894;51.466;7.444;2023-02-28T07:29:11;13.90;;;7.82;;
38083;SDS011;23894;51.466;7.444;2023-02-28T07:31:15;10.57;;;7.32;;
38083;SDS011;23894;51.466;7.444;2023-02-28T07:33:19;11.73;;;7.32;;
38083;SDS011;23894;51.466;7.444;2023-02-28T07:35:21;13.63;;;7.68;;
38083;SDS011;23894;51.466;7.444;2023-02-28T07:37:22;13.15;;;6.97;;
38083;SDS011;23894;51.466;7.444;2023-02-28T07:39:25;9.52;;;6.82;;
38083;SDS011;23894;51.466;7.444;2023-02-28T07:41:28;16.92;;;7.63;;
38083;SDS011;23894;51.466;7.444;2023-02-28T07:43:30;13.50;;;7.72;;
38083;SDS011;23894;51.466;7.444;2023-02-28T07:45:32;13.05;;;7.03;;
38083;SDS011;23894;51.466;7.444;2023-02-28T07:47:34;10.60;;;7.05;;
38083;SDS011;23894;51.466;7.444;2023-02-28T07:49:36;19.63;;;8.07;;
38083;SDS011;23894;51.466;7.444;2023-02-28T07:51:36;13.10;;;7.90;;
38083;SDS011;23894;51.466;7.444;2023-02-28T07:53:38;10.45;;;7.40;;
38083;SDS011;23894;51.466;7.444;2023-02-28T07:55:41;10.50;;;7.55;;
38083;SDS011;23894;51.466;7.444;2023-02-28T07:57:43;11.23;;;7.63;;
38083;SDS011;23894;51.466;7.444;2023-02-28T07:59:46;11.18;;;7.95;;
38083;SDS011;23894;51.466;7.444;2023-02-28T08:01:48;13.85;;;7.60;;
38083;SDS011;23894;51.466;7.444;2023-02-28T08:03:51;12.70;;;7.68;;
38083;SDS011;23894;51.466;7.444;2023-02-28T08:05:56;12.23;;;7.72;;
38083;SDS011;23894;51.466;7.444;2023-02-28T08:08:00;11.68;;;7.97;;
38083;SDS011;23894;51.466;7.444;2023-02-28T08:10:02;11.40;;;8.05;;
38083;SDS011;23894;51.466;7.444;2023-02-28T08:12:11;13.32;;;8.15;;
38083;SDS011;23894;51.466;7.444;2023-02-28T08:14:13;11.18;;;7.88;;
38083;SDS011;23894;51.466;7.444;2023-02-28T08:16:16;12.95;;;8.10;;
38083;SDS011;23894;51.466;7.444;2023-02-28T08:18:22;11.30;;;7.68;;
38083;SDS011;23894;51.466;7.444;2023-02-28T08:20:25;14.48;;;7.72;;
38083;SDS011;23894;51.466;7.444;2023-02-28T08:22:28;11.68;;;8.30;;
38083;SDS011;23894;51.466;7.444;2023-02-28T08:24:29;17.13;;;8.48;;
38083;SDS011;23894;51.466;7.444;2023-02-28T08:26:31;10.95;;;8.05;;
38083;SDS011;23894;51.466;7.444;2023-02-28T08:28:33;14.65;;;8.43;;
38083;SDS011;23894;51.466;7.444;2023-02-28T08:30:37;13.02;;;8.95;;
38083;SDS011;23894;51.466;7.444;2023-02-28T08:32:42;10.48;;;7.53;;
38083;SDS011;23894;51.466;7.444;2023-02-28T08:34:44;16.20;;;8.30;;
38083;SDS011;23894;51.466;7.444;2023-02-28T08:36:45;11.80;;;8.27;;
38083;SDS011;23894;51.466;7.444;2023-02-28T08:38:48;11.68;;;8.18;;
38083;SDS011;23894;51.466;7.444;2023-02-28T08:41:01;12.57;;;7.70;;
38083;SDS011;23894;51.466;7.444;2023-02-28T08:43:11;11.45;;;7.35;;
38083;SDS011;23894;51.466;7.444;2023-02-28T08:45:13;10.63;;;7.63;;
38083;SDS011;23894;51.466;7.444;2023-02-28T08:47:17;13.18;;;7.00;;
38083;SDS011;23894;51.466;7.444;2023-02-28T08:49:19;9.82;;;6.53;;
38083;SDS011;23894;51.466;7.444;2023-02-28T08:51:21;10.93;;;6.88;;
38083;SDS011;23894;51.466;7.444;2023-02-28T08:53:27;10.23;;;6.72;;
38083;SDS011;23894;51.466;7.444;2023-02-28T08:55:29;9.82;;;6.90;;
38083;SDS011;23894;51.466;7.444;2023-02-28T08:57:31;8.52;;;6.15;;
38083;SDS011;23894;51.466;7.444;2023-02-28T08:59:34;11.05;;;6.03;;
38083;SDS011;23894;51.466;7.444;2023-02-28T09:01:37;9.07;;;6.05;;
38083;SDS011;23894;51.466;7.444;2023-02-28T09:03:38;9.18;;;5.53;;
38083;SDS011;23894;51.466;7.444;2023-02-28T09:05:58;10.45;;;5.25;;
38083;SDS011;23894;51.466;7.444;2023-02-28T09:08:00;8.48;;;5.10;;
38083;SDS011;23894;51.466;7.444;2023-02-28T09:10:05;7.43;;;4.97;;
38083;SDS011;23894;51.466;7.444;2023-02-28T09:12:31;9.80;;;5.18;;
38083;SDS011;23894;51.466;7.444;2023-02-28T09:14:36;9.77;;;5.10;;
38083;SDS011;23894;51.466;7.444;2023-02-28T09:16:39;8.73;;;5.03;;
38083;SDS011;23894;51.466;7.444;2023-02-28T09:18:42;8.52;;;4.82;;
38083;SDS011;23894;51.466;7.444;2023-02-28T09:20:48;9.13;;;5.03;;
38083;SDS011;23894;51.466;7.444;2023-02-28T09:22:52;6.88;;;4.30;;
38083;SDS011;23894;51.466;7.444;2023-02-28T09:24:53;7.32;;;3.97;;
38083;SDS011;23894;51.466;7.444;2023-02-28T09:26:55;8.15;;;4.20;;
38083;SDS011;23894;51.466;7.444;2023-02-28T09:28:58;7.63;;;4.13;;
38083;SDS011;23894;51.466;7.444;2023-02-28T09:31:03;6.38;;;4.10;;
38083;SDS011;23894;51.466;7.444;2023-02-28T09:33:05;7.60;;;4.30;;
38083;SDS011;23894;51.466;7.444;2023-02-28T09:35:10;5.88;;;3.70;;
38083;SDS011;23894;51.466;7.444;2023-02-28T09:37:18;7.40;;;3.80;;
38083;SDS011;23894;51.466;7.444;2023-02-28T09:39:21;7.55;;;4.00;;
38083;SDS011;23894;51.466;7.444;2023-02-28T09:41:24;7.25;;;4.05;;
38083;SDS011;23894;51.466;7.444;2023-02-28T09:43:38;6.63;;;3.95;;
38083;SDS011;23894;51.466;7.444;2023-02-28T09:45:45;6.45;;;3.97;;
38083;SDS011;23894;51.466;7.444;2023-02-28T09:48:22;7.45;;;3.80;;
38083;SDS011;23894;51.466;7.444;2023-02-28T09:50:44;6.07;;;3.65;;
38083;SDS011;23894;51.466;7.444;2023-02-28T09:52:54;7.77;;;3.70;;
38083;SDS011;23894;51.466;7.444;2023-02-28T09:54:58;6.22;;;3.58;;
38083;SDS011;23894;51.466;7.444;2023-02-28T10:06:49;6.88;;;3.40;;
38083;SDS011;23894;51.466;7.444;2023-02-28T10:09:34;5.10;;;3.22;;
38083;SDS011;23894;51.466;7.444;2023-02-28T10:13:28;5.72;;;3.00;;
38083;SDS011;23894;51.466;7.444;2023-02-28T10:15:42;6.70;;;3.38;;
38083;SDS011;23894;51.466;7.444;2023-02-28T10:17:47;6.28;;;3.30;;
38083;SDS011;23894;51.466;7.444;2023-02-28T10:20:14;7.90;;;3.40;;
38083;SDS011;23894;51.466;7.444;2023-02-28T10:22:31;5.35;;;3.05;;
38083;SDS011;23894;51.466;7.444;2023-02-28T10:24:49;5.38;;;3.13;;
38083;SDS011;23894;51.466;7.444;2023-02-28T10:26:52;6.38;;;3.20;;
38083;SDS011;23894;51.466;7.444;2023-02-28T10:29:02;7.30;;;3.40;;
38083;SDS011;23894;51.466;7.444;2023-02-28T10:31:04;8.05;;;3.17;;
38083;SDS011;23894;51.466;7.444;2023-02-28T10:33:30;7.25;;;3.45;;
38083;SDS011;23894;51.466;7.444;2023-02-28T10:35:34;5.63;;;3.08;;
38083;SDS011;23894;51.466;7.444;2023-02-28T10:37:41;7.82;;;3.35;;
38083;SDS011;23894;51.466;7.444;2023-02-28T10:39:45;7.07;;;3.20;;
38083;SDS011;23894;51.466;7.444;2023-02-28T10:41:48;5.55;;;3.17;;
38083;SDS011;23894;51.466;7.444;2023-02-28T10:43:50;5.65;;;3.20;;
38083;SDS011;23894;51.466;7.444;2023-02-28T10:52:53;5.72;;;3.05;;
38083;SDS011;23894;51.466;7.444;2023-02-28T10:54:57;7.25;;;3.08;;
38083;SDS011;23894;51.466;7.444;2023-02-28T10:57:23;5.40;;;3.03;;
38083;SDS011;23894;51.466;7.444;2023-02-28T10:59:30;7.32;;;2.95;;
38083;SDS011;23894;51.466;7.444;2023-02-28T11:03:40;5.53;;;2.90;;
38083;SDS011;23894;51.466;7.444;2023-02-28T11:05:42;7.30;;;3.10;;
38083;SDS011;23894;51.466;7.444;2023-02-28T11:07:50;7.35;;;3.28;;
38083;SDS011;23894;51.466;7.444;2023-02-28T11:10:18;6.78;;;3.25;;
38083;SDS011;23894;51.466;7.444;2023-02-28T11:14:26;7.90;;;2.97;;
38083;SDS011;23894;51.466;7.444;2023-02-28T11:16:36;7.95;;;3.60;;
38083;SDS011;23894;51.466;7.444;2023-02-28T11:18:47;5.68;;;3.20;;
38083;SDS011;23894;51.466;7.444;2023-02-28T11:20:58;5.43;;;2.88;;
38083;SDS011;23894;51.466;7.444;2023-02-28T11:23:02;6.25;;;3.10;;
38083;SDS011;23894;51.466;7.444;2023-02-28T11:25:12;5.93;;;3.17;;
38083;SDS011;23894;51.466;7.444;2023-02-28T11:27:42;6.85;;;3.10;;
38083;SDS011;23894;51.466;7.444;2023-02-28T11:29:48;7.25;;;3.13;;
38083;SDS011;23894;51.466;7.444;2023-02-28T11:32:12;5.63;;;2.78;;
38083;SDS011;23894;51.466;7.444;2023-02-28T11:34:23;6.13;;;3.05;;
38083;SDS011;23894;51.466;7.444;2023-02-28T11:36:30;5.70;;;2.80;;
38083;SDS011;23894;51.466;7.444;2023-02-28T11:38:36;6.90;;;3.13;;
38083;SDS011;23894;51.466;7.444;2023-02-28T11:40:43;7.22;;;3.00;;
38083;SDS011;23894;51.466;7.444;2023-02-28T11:47:48;5.30;;;3.00;;
38083;SDS011;23894;51.466;7.444;2023-02-28T11:57:15;5.35;;;2.95;;
38083;SDS011;23894;51.466;7.444;2023-02-28T11:59:24;7.32;;;2.90;;
38083;SDS011;23894;51.466;7.444;2023-02-28T12:04:03;7.30;;;2.90;;
38083;SDS011;23894;51.466;7.444;2023-02-28T12:06:30;5.32;;;2.95;;
38083;SDS011;23894;51.466;7.444;2023-02-28T12:15:14;5.50;;;2.65;;
38083;SDS011;23894;51.466;7.444;2023-02-28T12:17:45;6.10;;;2.90;;
38083;SDS011;23894;51.466;7.444;2023-02-28T12:19:57;6.25;;;3.10;;
38083;SDS011;23894;51.466;7.444;2023-02-28T12:26:42;5.20;;;2.60;;
38083;SDS011;23894;51.466;7.444;2023-02-28T12:28:49;5.15;;;2.45;;
38083;SDS011;23894;51.466;7.444;2023-02-28T12:31:04;5.22;;;2.85;;
38083;SDS011;23894;51.466;7.444;2023-02-28T12:33:09;5.95;;;2.53;;
38083;SDS011;23894;51.466;7.444;2023-02-28T12:35:13;5.22;;;2.30;;
38083;SDS011;23894;51.466;7.444;2023-02-28T12:39:49;4.82;;;2.47;;
38083;SDS011;23894;51.466;7.444;2023-02-28T12:42:08;6.05;;;2.80;;
38083;SDS011;23894;51.466;7.444;2023-02-28T12:44:17;5.18;;;2.85;;
38083;SDS011;23894;51.466;7.444;2023-02-28T12:46:42;6.85;;;2.97;;
38083;SDS011;23894;51.466;7.444;2023-02-28T12:48:43;5.30;;;2.80;;
38083;SDS011;23894;51.466;7.444;2023-02-28T12:50:48;5.03;;;2.75;;
38083;SDS011;23894;51.466;7.444;2023-02-28T12:55:14;4.85;;;2.35;;
38083;SDS011;23894;51.466;7.444;2023-02-28T12:57:32;6.45;;;2.35;;
38083;SDS011;23894;51.466;7.444;2023-02-28T12:59:56;5.35;;;2.45;;
38083;SDS011;23894;51.466;7.444;2023-02-28T13:10:56;7.95;;;2.95;;
38083;SDS011;23894;51.466;7.444;2023-02-28T13:13:19;5.32;;;2.33;;
38083;SDS011;23894;51.466;7.444;2023-02-28T13:15:27;5.35;;;2.60;;
38083;SDS011;23894;51.466;7.444;2023-02-28T13:17:29;6.63;;;2.55;;
38083;SDS011;23894;51.466;7.444;2023-02-28T13:19:34;5.65;;;2.72;;
38083;SDS011;23894;51.466;7.444;2023-02-28T13:21:42;5.80;;;2.70;;
38083;SDS011;23894;51.466;7.444;2023-02-28T13:23:58;5.10;;;2.65;;
38083;SDS011;23894;51.466;7.444;2023-02-28T13:26:02;4.70;;;2.40;;
38083;SDS011;23894;51.466;7.444;2023-02-28T13:28:08;5.70;;;2.70;;
38083;SDS011;23894;51.466;7.444;2023-02-28T13:32:32;7.20;;;2.45;;
38083;SDS011;23894;51.466;7.444;2023-02-28T13:34:39;5.70;;;2.85;;
38083;SDS011;23894;51.466;7.444;2023-02-28T13:36:40;4.93;;;2.55;;
38083;SDS011;23894;51.466;7.444;2023-02-28T13:40:44;6.00;;;2.70;;
38083;SDS011;23894;51.466;7.444;2023-02-28T13:43:10;5.32;;;2.45;;
38083;SDS011;23894;51.466;7.444;2023-02-28T13:45:27;5.10;;;2.53;;
38083;SDS011;23894;51.466;7.444;2023-02-28T13:49:51;5.13;;;2.45;;
38083;SDS011;23894;51.466;7.444;2023-02-28T13:54:18;6.00;;;2.80;;
38083;SDS011;23894;51.466;7.444;2023-02-28T13:56:41;4.72;;;2.47;;
38083;SDS011;23894;51.466;7.444;2023-02-28T13:59:06;6.22;;;2.78;;
38083;SDS011;23894;51.466;7.444;2023-02-28T14:08:23;6.03;;;2.95;;
38083;SDS011;23894;51.466;7.444;2023-02-28T14:10:29;5.57;;;2.65;;
38083;SDS011;23894;51.466;7.444;2023-02-28T14:14:57;5.75;;;3.35;;
38083;SDS011;23894;51.466;7.444;2023-02-28T14:17:04;5.38;;;3.15;;
38083;SDS011;23894;51.466;7.444;2023-02-28T14:21:29;4.72;;;2.45;;
38083;SDS011;23894;51.466;7.444;2023-02-28T14:23:35;5.65;;;3.17;;
38083;SDS011;23894;51.466;7.444;2023-02-28T14:25:41;5.93;;;3.05;;
38083;SDS011;23894;51.466;7.444;2023-02-28T14:32:27;6.45;;;2.90;;
38083;SDS011;23894;51.466;7.444;2023-02-28T14:34:37;5.35;;;2.92;;
38083;SDS011;23894;51.466;7.444;2023-02-28T14:36:42;7.55;;;2.85;;
38083;SDS011;23894;51.466;7.444;2023-02-28T14:38:47;5.85;;;2.88;;